createdAt,value
2019-05-26T00:00:31.586Z,12.53
2019-05-26T00:01:31.565Z,12.49
2019-05-26T00:02:31.547Z,12.50
2019-05-26T00:03:31.508Z,12.47
2019-05-26T00:04:31.489Z,12.42
2019-05-26T00:05:31.472Z,12.34
2019-05-26T00:06:31.454Z,12.28
2019-05-26T00:07:31.438Z,12.39
2019-05-26T00:08:31.420Z,12.43
2019-05-26T00:09:31.401Z,12.44
2019-05-26T00:10:31.385Z,12.44
2019-05-26T00:11:31.369Z,12.37
2019-05-26T00:12:31.352Z,12.32
2019-05-26T00:13:31.335Z,12.37
2019-05-26T00:14:31.314Z,12.31
2019-05-26T00:15:31.295Z,12.42
2019-05-26T00:16:31.281Z,12.39
2019-05-26T00:17:31.262Z,12.28
2019-05-26T00:18:33.480Z,12.29
2019-05-26T00:19:31.228Z,12.31
2019-05-26T00:20:31.210Z,12.31
2019-05-26T00:21:31.198Z,12.25
2019-05-26T00:22:31.175Z,12.28
2019-05-26T00:23:31.164Z,12.22
2019-05-26T00:24:31.140Z,12.22
2019-05-26T00:25:31.124Z,12.25
2019-05-26T00:26:31.105Z,12.31
2019-05-26T00:27:31.093Z,12.25
2019-05-26T00:28:31.069Z,12.40
2019-05-26T00:29:31.054Z,12.32
2019-05-26T00:30:31.036Z,12.32
2019-05-26T00:31:31.020Z,12.42
2019-05-26T00:32:30.999Z,12.47
2019-05-26T00:33:30.984Z,12.46
2019-05-26T00:34:30.966Z,12.50
2019-05-26T00:35:30.949Z,12.47
2019-05-26T00:36:30.933Z,12.49
2019-05-26T00:37:47.386Z,12.46
2019-05-26T00:38:30.895Z,12.44
2019-05-26T00:39:30.878Z,12.52
2019-05-26T00:40:30.861Z,12.58
2019-05-26T00:41:30.844Z,12.53
2019-05-26T00:42:30.826Z,12.61
2019-05-26T00:43:30.812Z,12.60
2019-05-26T00:44:30.797Z,12.57
2019-05-26T00:45:30.774Z,12.60
2019-05-26T00:46:30.757Z,12.60
2019-05-26T00:47:30.806Z,12.58
2019-05-26T00:48:30.726Z,12.64
2019-05-26T00:49:30.709Z,12.62
2019-05-26T00:50:30.688Z,12.69
2019-05-26T00:51:30.670Z,12.71
2019-05-26T00:52:30.653Z,12.60
2019-05-26T00:53:30.636Z,12.67
2019-05-26T00:54:30.620Z,12.58
2019-05-26T00:55:30.601Z,12.64
2019-05-26T00:56:30.585Z,12.62
2019-05-26T00:57:30.571Z,12.58
2019-05-26T00:58:30.589Z,12.69
2019-05-26T00:59:30.536Z,12.68
2019-05-26T01:00:30.520Z,12.68
2019-05-26T01:01:30.508Z,12.68
2019-05-26T01:02:30.482Z,12.65
2019-05-26T01:03:30.465Z,12.67
2019-05-26T01:04:30.448Z,12.77
2019-05-26T01:05:30.437Z,12.67
2019-05-26T01:06:30.415Z,12.65
2019-05-26T01:07:30.399Z,12.71
2019-05-26T01:08:30.377Z,12.71
2019-05-26T01:09:30.364Z,12.61
2019-05-26T01:10:30.349Z,12.69
2019-05-26T01:11:30.330Z,12.55
2019-05-26T01:12:30.312Z,12.64
2019-05-26T01:13:30.297Z,12.60
2019-05-26T01:14:30.278Z,12.53
2019-05-26T01:15:30.258Z,12.53
2019-05-26T01:16:30.240Z,12.53
2019-05-26T01:17:30.222Z,12.58
2019-05-26T01:19:30.195Z,12.52
2019-05-26T01:20:30.171Z,12.49
2019-05-26T01:21:30.157Z,12.61
2019-05-26T01:22:30.135Z,12.50
2019-05-26T01:23:30.118Z,12.53
2019-05-26T01:24:30.105Z,12.50
2019-05-26T01:25:30.090Z,12.46
2019-05-26T01:26:30.066Z,12.49
2019-05-26T01:27:30.048Z,12.50
2019-05-26T01:28:30.035Z,12.50
2019-05-26T01:29:30.024Z,12.49
2019-05-26T01:30:30.002Z,12.42
2019-05-26T01:31:29.987Z,12.40
2019-05-26T01:32:29.965Z,12.42
2019-05-26T01:33:29.945Z,12.44
2019-05-26T01:34:29.929Z,12.39
2019-05-26T01:35:29.912Z,12.46
2019-05-26T01:36:29.916Z,12.47
2019-05-26T01:37:29.876Z,12.49
2019-05-26T01:38:29.861Z,12.52
2019-05-26T01:39:29.843Z,12.46
2019-05-26T01:40:29.929Z,12.47
2019-05-26T01:41:29.807Z,12.43
2019-05-26T01:42:29.797Z,12.53
2019-05-26T01:43:29.775Z,12.49
2019-05-26T01:44:29.759Z,12.47
2019-05-26T01:45:29.739Z,12.49
2019-05-26T01:46:29.721Z,12.46
2019-05-26T01:47:29.701Z,12.49
2019-05-26T01:48:29.687Z,12.44
2019-05-26T01:49:29.671Z,12.46
2019-05-26T01:50:29.649Z,12.46
2019-05-26T01:51:29.631Z,12.29
2019-05-26T01:52:29.614Z,12.37
2019-05-26T01:53:29.599Z,12.32
2019-05-26T01:54:29.580Z,12.40
2019-05-26T01:55:29.561Z,12.29
2019-05-26T01:56:29.563Z,12.27
2019-05-26T01:57:29.527Z,12.29
2019-05-26T01:58:29.510Z,12.28
2019-05-26T01:59:29.491Z,12.32
2019-05-26T02:00:29.478Z,12.25
2019-05-26T02:01:29.459Z,12.22
2019-05-26T02:02:29.441Z,12.27
2019-05-26T02:03:29.422Z,12.25
2019-05-26T02:04:29.405Z,12.27
2019-05-26T02:05:29.387Z,12.25
2019-05-26T02:06:29.371Z,12.24
2019-05-26T02:07:29.351Z,12.16
2019-05-26T02:08:38.823Z,12.24
2019-05-26T02:09:29.317Z,12.22
2019-05-26T02:10:29.303Z,12.19
2019-05-26T02:11:29.286Z,12.16
2019-05-26T02:12:29.273Z,12.10
2019-05-26T02:13:29.248Z,12.13
2019-05-26T02:14:29.229Z,12.14
2019-05-26T02:15:29.211Z,12.16
2019-05-26T02:16:29.195Z,12.18
2019-05-26T02:17:29.186Z,12.13
2019-05-26T02:18:29.161Z,12.13
2019-05-26T02:19:29.143Z,12.09
2019-05-26T02:20:29.124Z,12.09
2019-05-26T02:21:29.105Z,12.11
2019-05-26T02:22:29.090Z,12.07
2019-05-26T02:23:29.071Z,11.95
2019-05-26T02:24:29.053Z,11.96
2019-05-26T02:25:29.036Z,12.01
2019-05-26T02:26:29.021Z,12.01
2019-05-26T02:27:29.005Z,11.95
2019-05-26T02:28:28.982Z,11.90
2019-05-26T02:29:28.969Z,11.91
2019-05-26T02:30:28.948Z,11.87
2019-05-26T02:31:28.933Z,11.87
2019-05-26T02:32:28.915Z,11.81
2019-05-26T02:33:28.896Z,11.83
2019-05-26T02:34:28.879Z,11.75
2019-05-26T02:35:28.860Z,11.80
2019-05-26T02:36:28.848Z,11.87
2019-05-26T02:37:28.823Z,11.77
2019-05-26T02:38:28.805Z,11.75
2019-05-26T02:39:28.788Z,11.72
2019-05-26T02:40:28.769Z,11.90
2019-05-26T02:41:28.754Z,11.75
2019-05-26T02:42:28.734Z,11.75
2019-05-26T02:43:28.719Z,11.81
2019-05-26T02:44:28.699Z,11.87
2019-05-26T02:45:28.681Z,11.75
2019-05-26T02:46:28.663Z,11.84
2019-05-26T02:47:28.696Z,11.80
2019-05-26T02:48:28.628Z,11.83
2019-05-26T02:49:28.613Z,11.81
2019-05-26T02:50:28.591Z,11.70
2019-05-26T02:51:28.573Z,11.72
2019-05-26T02:52:28.556Z,11.70
2019-05-26T02:53:28.538Z,11.66
2019-05-26T02:54:28.522Z,11.65
2019-05-26T02:55:28.504Z,11.67
2019-05-26T02:56:28.491Z,11.65
2019-05-26T02:57:28.466Z,11.59
2019-05-26T02:58:28.449Z,11.50
2019-05-26T02:59:28.435Z,11.58
2019-05-26T03:00:28.413Z,11.59
2019-05-26T03:01:28.394Z,11.45
2019-05-26T03:02:28.393Z,11.44
2019-05-26T03:03:28.360Z,11.47
2019-05-26T03:04:28.350Z,11.51
2019-05-26T03:05:28.326Z,11.52
2019-05-26T03:06:28.308Z,11.44
2019-05-26T03:07:28.290Z,11.42
2019-05-26T03:08:28.273Z,11.51
2019-05-26T03:09:28.252Z,11.51
2019-05-26T03:10:28.237Z,11.54
2019-05-26T03:11:28.223Z,11.50
2019-05-26T03:12:28.197Z,11.50
2019-05-26T03:13:28.288Z,11.51
2019-05-26T03:14:28.162Z,11.51
2019-05-26T03:15:28.147Z,11.50
2019-05-26T03:16:28.127Z,11.51
2019-05-26T03:17:28.109Z,11.39
2019-05-26T03:18:28.093Z,11.39
2019-05-26T03:19:28.073Z,11.39
2019-05-26T03:20:28.055Z,11.39
2019-05-26T03:21:28.036Z,11.42
2019-05-26T03:22:28.030Z,11.39
2019-05-26T03:23:28.001Z,11.40
2019-05-26T03:24:27.989Z,11.45
2019-05-26T03:25:27.965Z,11.36
2019-05-26T03:26:27.952Z,11.47
2019-05-26T03:27:27.929Z,11.42
2019-05-26T03:28:27.913Z,11.34
2019-05-26T03:29:27.899Z,11.32
2019-05-26T03:30:27.883Z,11.30
2019-05-26T03:31:27.865Z,11.42
2019-05-26T03:32:27.898Z,11.40
2019-05-26T03:33:27.831Z,11.27
2019-05-26T03:34:27.813Z,11.39
2019-05-26T03:35:27.788Z,11.37
2019-05-26T03:36:27.769Z,11.32
2019-05-26T03:37:27.749Z,11.27
2019-05-26T03:38:27.732Z,11.33
2019-05-26T03:39:43.797Z,11.30
2019-05-26T03:40:27.698Z,11.34
2019-05-26T03:41:27.695Z,11.32
2019-05-26T03:42:27.663Z,11.36
2019-05-26T03:43:27.643Z,11.40
2019-05-26T03:44:27.627Z,11.37
2019-05-26T03:45:27.649Z,11.36
2019-05-26T03:46:27.592Z,11.44
2019-05-26T03:47:27.573Z,11.50
2019-05-26T03:48:27.552Z,11.44
2019-05-26T03:49:27.538Z,11.42
2019-05-26T03:50:27.518Z,11.42
2019-05-26T03:51:27.516Z,11.50
2019-05-26T03:52:27.481Z,11.42
2019-05-26T03:53:27.464Z,11.50
2019-05-26T03:54:27.445Z,11.51
2019-05-26T03:55:27.432Z,11.52
2019-05-26T03:56:27.409Z,11.48
2019-05-26T03:57:27.394Z,11.48
2019-05-26T03:58:27.384Z,11.52
2019-05-26T03:59:27.355Z,11.44
2019-05-26T04:00:27.340Z,11.37
2019-05-26T04:01:27.322Z,11.55
2019-05-26T04:02:27.305Z,11.52
2019-05-26T04:03:27.283Z,11.48
2019-05-26T04:04:27.270Z,11.40
2019-05-26T04:05:27.253Z,11.50
2019-05-26T04:06:27.238Z,11.57
2019-05-26T04:07:27.216Z,11.65
2019-05-26T04:08:27.201Z,11.66
2019-05-26T04:09:27.179Z,11.70
2019-05-26T04:10:27.162Z,11.65
2019-05-26T04:11:27.147Z,11.70
2019-05-26T04:12:27.134Z,11.69
2019-05-26T04:13:27.108Z,11.70
2019-05-26T04:14:27.094Z,11.81
2019-05-26T04:15:27.074Z,11.85
2019-05-26T04:16:27.054Z,11.85
2019-05-26T04:17:27.039Z,11.90
2019-05-26T04:18:27.029Z,11.95
2019-05-26T04:19:27.008Z,12.01
2019-05-26T04:20:26.989Z,12.06
2019-05-26T04:21:26.977Z,12.10
2019-05-26T04:22:26.955Z,12.10
2019-05-26T04:23:26.938Z,12.13
2019-05-26T04:24:26.921Z,12.10
2019-05-26T04:25:26.899Z,12.09
2019-05-26T04:26:26.884Z,12.18
2019-05-26T04:27:26.865Z,12.10
2019-05-26T04:28:26.847Z,12.14
2019-05-26T04:29:26.829Z,12.29
2019-05-26T04:30:26.815Z,12.27
2019-05-26T04:31:26.794Z,12.37
2019-05-26T04:32:26.782Z,12.28
2019-05-26T04:33:26.761Z,12.32
2019-05-26T04:34:26.746Z,12.43
2019-05-26T04:35:26.726Z,12.58
2019-05-26T04:36:26.709Z,12.90
2019-05-26T04:37:26.700Z,13.16
2019-05-26T04:38:26.677Z,13.19
2019-05-26T04:39:26.658Z,13.41
2019-05-26T04:40:27.964Z,13.44
2019-05-26T04:41:26.629Z,13.49
2019-05-26T04:42:26.619Z,13.53
2019-05-26T04:43:26.592Z,13.44
2019-05-26T04:44:26.578Z,13.39
2019-05-26T04:45:26.559Z,13.36
2019-05-26T04:46:26.547Z,13.39
2019-05-26T04:47:26.529Z,13.36
2019-05-26T04:48:26.518Z,13.41
2019-05-26T04:49:26.494Z,13.36
2019-05-26T04:50:26.478Z,13.38
2019-05-26T04:51:26.460Z,13.38
2019-05-26T04:52:26.455Z,13.35
2019-05-26T04:53:26.427Z,13.39
2019-05-26T04:54:26.410Z,13.35
2019-05-26T04:55:26.401Z,13.45
2019-05-26T04:56:26.378Z,13.49
2019-05-26T04:57:26.361Z,13.49
2019-05-26T04:58:26.347Z,13.53
2019-05-26T04:59:26.330Z,13.59
2019-05-26T05:00:26.312Z,13.71
2019-05-26T05:01:26.296Z,13.96
2019-05-26T05:02:26.281Z,14.10
2019-05-26T05:03:26.268Z,14.25
2019-05-26T05:04:26.250Z,14.29
2019-05-26T05:05:26.237Z,14.48
2019-05-26T05:06:26.221Z,14.58
2019-05-26T05:07:28.521Z,14.72
2019-05-26T05:08:26.189Z,14.95
2019-05-26T05:09:26.198Z,15.00
2019-05-26T05:10:41.288Z,15.06
2019-05-26T05:11:26.141Z,15.06
2019-05-26T05:12:26.129Z,15.14
2019-05-26T05:13:26.115Z,15.22
2019-05-26T05:14:26.104Z,15.28
2019-05-26T05:15:26.086Z,15.46
2019-05-26T05:16:26.068Z,15.57
2019-05-26T05:17:26.054Z,15.57
2019-05-26T05:18:26.047Z,15.67
2019-05-26T05:19:26.029Z,15.77
2019-05-26T05:20:26.012Z,15.99
2019-05-26T05:21:26.005Z,16.29
2019-05-26T05:22:25.984Z,16.38
2019-05-26T05:23:25.971Z,16.49
2019-05-26T05:24:25.958Z,16.75
2019-05-26T05:25:25.944Z,16.82
2019-05-26T05:26:25.940Z,16.86
2019-05-26T05:27:25.920Z,16.98
2019-05-26T05:28:25.906Z,16.98
2019-05-26T05:29:25.900Z,17.01
2019-05-26T05:30:25.882Z,17.21
2019-05-26T05:31:25.868Z,17.29
2019-05-26T05:32:25.857Z,17.41
2019-05-26T05:33:25.853Z,17.46
2019-05-26T05:34:25.838Z,17.39
2019-05-26T05:35:25.830Z,17.37
2019-05-26T05:36:25.812Z,17.48
2019-05-26T05:37:25.802Z,17.44
2019-05-26T05:38:25.858Z,17.41
2019-05-26T05:39:25.776Z,17.33
2019-05-26T05:40:25.769Z,17.29
2019-05-26T05:41:25.758Z,17.31
2019-05-26T05:42:25.742Z,17.18
2019-05-26T05:43:25.732Z,17.16
2019-05-26T05:44:25.720Z,17.29
2019-05-26T05:45:25.707Z,17.37
2019-05-26T05:46:25.694Z,17.44
2019-05-26T05:47:25.682Z,17.63
2019-05-26T05:48:25.673Z,17.54
2019-05-26T05:49:25.694Z,17.59
2019-05-26T05:50:25.647Z,17.75
2019-05-26T05:51:25.633Z,17.83
2019-05-26T05:52:25.623Z,17.83
2019-05-26T05:53:25.611Z,18.11
2019-05-26T05:54:25.604Z,18.12
2019-05-26T05:55:25.591Z,17.93
2019-05-26T05:56:25.578Z,18.11
2019-05-26T05:57:25.568Z,18.16
2019-05-26T05:58:25.560Z,18.30
2019-05-26T05:59:25.546Z,18.20
2019-05-26T06:00:25.543Z,18.34
2019-05-26T06:01:25.529Z,18.29
2019-05-26T06:02:25.515Z,18.53
2019-05-26T06:03:25.504Z,18.58
2019-05-26T06:04:25.495Z,18.38
2019-05-26T06:05:25.488Z,18.43
2019-05-26T06:06:25.477Z,18.56
2019-05-26T06:07:25.472Z,18.55
2019-05-26T06:08:25.453Z,18.56
2019-05-26T06:09:25.446Z,18.41
2019-05-26T06:10:25.435Z,18.34
2019-05-26T06:11:25.420Z,18.35
2019-05-26T06:12:25.417Z,18.37
2019-05-26T06:13:25.404Z,18.20
2019-05-26T06:14:25.391Z,18.08
2019-05-26T06:15:25.375Z,17.85
2019-05-26T06:16:25.368Z,17.74
2019-05-26T06:17:25.355Z,17.83
2019-05-26T06:18:25.341Z,17.85
2019-05-26T06:19:25.334Z,17.93
2019-05-26T06:20:25.319Z,18.00
2019-05-26T06:21:25.304Z,17.87
2019-05-26T06:22:25.293Z,18.01
2019-05-26T06:23:25.286Z,17.98
2019-05-26T06:24:25.268Z,18.14
2019-05-26T06:25:25.407Z,18.14
2019-05-26T06:26:25.254Z,18.12
2019-05-26T06:27:25.234Z,18.22
2019-05-26T06:28:25.226Z,18.25
2019-05-26T06:29:25.210Z,18.30
2019-05-26T06:30:25.202Z,18.47
2019-05-26T06:31:25.185Z,18.69
2019-05-26T06:32:25.177Z,18.68
2019-05-26T06:33:25.168Z,18.92
2019-05-26T06:34:25.155Z,19.18
2019-05-26T06:35:25.144Z,19.27
2019-05-26T06:36:25.141Z,19.58
2019-05-26T06:37:25.122Z,19.76
2019-05-26T06:38:25.116Z,19.77
2019-05-26T06:39:25.105Z,19.99
2019-05-26T06:40:25.094Z,20.10
2019-05-26T06:41:33.538Z,20.43
2019-05-26T06:42:25.077Z,20.55
2019-05-26T06:43:25.070Z,20.87
2019-05-26T06:44:25.061Z,20.98
2019-05-26T06:45:25.055Z,21.03
2019-05-26T06:46:25.045Z,21.03
2019-05-26T06:47:25.037Z,21.24
2019-05-26T06:48:26.956Z,21.43
2019-05-26T06:49:25.023Z,21.40
2019-05-26T06:50:25.016Z,21.42
2019-05-26T06:51:25.009Z,21.45
2019-05-26T06:52:25.002Z,21.69
2019-05-26T06:53:24.995Z,21.61
2019-05-26T06:54:24.989Z,21.37
2019-05-26T06:55:24.981Z,21.17
2019-05-26T06:56:24.976Z,21.28
2019-05-26T06:57:24.969Z,21.62
2019-05-26T06:58:24.958Z,21.46
2019-05-26T06:59:24.952Z,21.15
2019-05-26T07:00:24.943Z,21.27
2019-05-26T07:01:24.937Z,21.40
2019-05-26T07:02:24.929Z,21.54
2019-05-26T07:03:24.965Z,21.12
2019-05-26T07:04:24.914Z,21.15
2019-05-26T07:05:24.907Z,20.95
2019-05-26T07:06:24.897Z,21.28
2019-05-26T07:07:24.891Z,21.92
2019-05-26T07:08:24.881Z,22.42
2019-05-26T07:09:24.875Z,22.73
2019-05-26T07:10:24.874Z,22.85
2019-05-26T07:11:24.863Z,23.35
2019-05-26T07:12:24.864Z,23.59
2019-05-26T07:13:24.857Z,23.91
2019-05-26T07:14:24.854Z,23.96
2019-05-26T07:15:24.845Z,24.21
2019-05-26T07:16:37.470Z,24.35
2019-05-26T07:17:24.837Z,24.42
2019-05-26T07:18:24.834Z,24.45
2019-05-26T07:19:24.842Z,24.56
2019-05-26T07:20:24.828Z,24.53
2019-05-26T07:21:24.822Z,24.41
2019-05-26T07:22:24.824Z,24.56
2019-05-26T07:23:24.818Z,24.69
2019-05-26T07:24:29.010Z,24.83
2019-05-26T07:25:24.808Z,25.02
2019-05-26T07:26:24.817Z,25.24
2019-05-26T07:27:24.807Z,25.09
2019-05-26T07:28:24.799Z,25.33
2019-05-26T07:29:24.798Z,25.53
2019-05-26T07:30:24.792Z,25.63
2019-05-26T07:31:24.789Z,25.48
2019-05-26T07:32:24.792Z,25.75
2019-05-26T07:33:24.786Z,25.53
2019-05-26T07:34:24.843Z,25.62
2019-05-26T07:35:24.780Z,25.75
2019-05-26T07:36:24.778Z,26.06
2019-05-26T07:37:24.777Z,26.24
2019-05-26T07:38:24.777Z,26.55
2019-05-26T07:39:24.779Z,26.37
2019-05-26T07:40:24.783Z,26.19
2019-05-26T07:41:24.776Z,26.39
2019-05-26T07:42:24.766Z,25.80
2019-05-26T07:43:27.937Z,25.95
2019-05-26T07:44:24.769Z,25.71
2019-05-26T07:45:24.784Z,25.51
2019-05-26T07:46:24.763Z,25.72
2019-05-26T07:47:24.762Z,25.87
2019-05-26T07:48:24.768Z,26.00
2019-05-26T07:49:24.795Z,26.25
2019-05-26T07:50:24.805Z,26.34
2019-05-26T07:51:24.767Z,26.51
2019-05-26T07:52:24.752Z,26.26
2019-05-26T07:53:24.767Z,26.37
2019-05-26T07:54:26.066Z,26.59
2019-05-26T07:55:24.748Z,26.73
2019-05-26T07:56:24.748Z,26.62
2019-05-26T07:57:24.742Z,26.56
2019-05-26T07:58:24.738Z,26.58
2019-05-26T07:59:24.736Z,26.68
2019-05-26T08:00:24.732Z,26.85
2019-05-26T08:01:24.747Z,26.36
2019-05-26T08:02:24.728Z,26.56
2019-05-26T08:03:24.725Z,26.48
2019-05-26T08:04:24.724Z,26.71
2019-05-26T08:05:24.724Z,26.87
2019-05-26T08:06:24.721Z,27.03
2019-05-26T08:07:24.720Z,27.21
2019-05-26T08:08:24.725Z,27.17
2019-05-26T08:09:24.716Z,27.00
2019-05-26T08:10:24.711Z,26.93
2019-05-26T08:11:24.709Z,27.00
2019-05-26T08:12:28.246Z,26.77
2019-05-26T08:13:24.706Z,26.50
2019-05-26T08:14:24.702Z,26.74
2019-05-26T08:15:24.699Z,26.63
2019-05-26T08:16:24.697Z,26.92
2019-05-26T08:17:24.696Z,26.81
2019-05-26T08:18:24.696Z,26.93
2019-05-26T08:19:24.692Z,27.00
2019-05-26T08:20:24.688Z,26.83
2019-05-26T08:21:24.686Z,26.71
2019-05-26T08:22:24.681Z,26.93
2019-05-26T08:23:24.679Z,27.23
2019-05-26T08:24:24.680Z,27.30
2019-05-26T08:25:24.675Z,27.45
2019-05-26T08:26:24.671Z,27.37
2019-05-26T08:27:24.669Z,27.00
2019-05-26T08:28:24.668Z,26.88
2019-05-26T08:29:24.662Z,27.02
2019-05-26T08:30:24.716Z,27.23
2019-05-26T08:31:24.666Z,27.37
2019-05-26T08:32:24.656Z,27.47
2019-05-26T08:33:24.653Z,27.18
2019-05-26T08:34:24.649Z,27.05
2019-05-26T08:35:24.729Z,26.76
2019-05-26T08:36:24.642Z,26.61
2019-05-26T08:37:24.678Z,26.76
2019-05-26T08:38:24.638Z,26.47
2019-05-26T08:39:24.631Z,26.48
2019-05-26T08:40:24.632Z,26.39
2019-05-26T08:41:24.626Z,26.34
2019-05-26T08:42:27.193Z,26.36
2019-05-26T08:43:24.622Z,26.54
2019-05-26T08:44:24.614Z,26.68
2019-05-26T08:45:24.634Z,26.74
2019-05-26T08:46:24.608Z,26.74
2019-05-26T08:47:24.602Z,26.73
2019-05-26T08:48:24.600Z,26.66
2019-05-26T08:49:24.597Z,26.26
2019-05-26T08:50:24.602Z,26.16
2019-05-26T08:51:24.595Z,25.81
2019-05-26T08:52:24.586Z,25.81
2019-05-26T08:53:24.581Z,25.36
2019-05-26T08:54:24.577Z,25.26
2019-05-26T08:55:24.570Z,25.01
2019-05-26T08:56:24.565Z,25.11
2019-05-26T08:57:24.560Z,24.99
2019-05-26T08:58:24.554Z,24.61
2019-05-26T08:59:24.550Z,24.58
2019-05-26T09:00:24.544Z,24.60
2019-05-26T09:01:24.537Z,24.33
2019-05-26T09:02:24.536Z,24.23
2019-05-26T09:03:24.529Z,24.27
2019-05-26T09:04:24.517Z,24.17
2019-05-26T09:05:24.512Z,23.99
2019-05-26T09:06:24.506Z,23.76
2019-05-26T09:07:24.496Z,23.84
2019-05-26T09:08:24.490Z,23.76
2019-05-26T09:09:24.491Z,23.99
2019-05-26T09:10:24.475Z,23.88
2019-05-26T09:11:24.467Z,23.96
2019-05-26T09:12:24.459Z,23.94
2019-05-26T09:13:24.457Z,23.95
2019-05-26T09:14:25.551Z,23.64
2019-05-26T09:15:24.449Z,23.61
2019-05-26T09:16:24.428Z,23.76
2019-05-26T09:17:24.425Z,23.56
2019-05-26T09:18:24.432Z,23.41
2019-05-26T09:19:24.404Z,23.34
2019-05-26T09:20:24.397Z,23.28
2019-05-26T09:21:24.388Z,23.31
2019-05-26T09:22:24.378Z,23.20
2019-05-26T09:23:24.371Z,23.15
2019-05-26T09:24:24.363Z,23.09
2019-05-26T09:25:24.354Z,23.32
2019-05-26T09:26:24.346Z,23.49
2019-05-26T09:27:24.339Z,23.61
2019-05-26T09:28:24.330Z,23.74
2019-05-26T09:29:24.322Z,23.64
2019-05-26T09:30:24.314Z,23.41
2019-05-26T09:31:24.315Z,23.72
2019-05-26T09:32:24.296Z,23.94
2019-05-26T09:33:24.291Z,24.13
2019-05-26T09:34:24.284Z,24.33
2019-05-26T09:35:24.271Z,24.32
2019-05-26T09:36:24.268Z,24.27
2019-05-26T09:37:24.256Z,24.42
2019-05-26T09:38:24.251Z,24.32
2019-05-26T09:39:24.240Z,24.48
2019-05-26T09:40:24.236Z,24.42
2019-05-26T09:41:24.228Z,24.33
2019-05-26T09:42:24.218Z,24.21
2019-05-26T09:43:24.209Z,24.08
2019-05-26T09:44:24.201Z,24.11
2019-05-26T09:45:24.194Z,24.13
2019-05-26T09:46:24.192Z,24.09
2019-05-26T09:47:24.180Z,24.23
2019-05-26T09:48:24.179Z,24.18
2019-05-26T09:49:24.194Z,24.06
2019-05-26T09:50:24.195Z,23.90
2019-05-26T09:51:24.176Z,23.79
2019-05-26T09:52:24.141Z,23.80
2019-05-26T09:53:24.132Z,23.71
2019-05-26T09:54:24.128Z,23.80
2019-05-26T09:55:24.119Z,23.87
2019-05-26T09:56:24.107Z,23.76
2019-05-26T09:57:24.099Z,23.99
2019-05-26T09:58:24.093Z,23.95
2019-05-26T09:59:24.085Z,23.87
2019-05-26T10:00:24.075Z,23.68
2019-05-26T10:01:24.076Z,23.79
2019-05-26T10:02:24.060Z,23.88
2019-05-26T10:03:24.052Z,24.02
2019-05-26T10:04:24.042Z,23.87
2019-05-26T10:05:24.034Z,23.99
2019-05-26T10:06:24.029Z,23.91
2019-05-26T10:07:24.022Z,23.88
2019-05-26T10:08:24.011Z,23.77
2019-05-26T10:09:24.006Z,23.50
2019-05-26T10:10:23.997Z,23.50
2019-05-26T10:11:23.986Z,23.64
2019-05-26T10:12:23.978Z,23.53
2019-05-26T10:13:31.608Z,23.56
2019-05-26T10:14:23.962Z,23.79
2019-05-26T10:15:23.953Z,23.51
2019-05-26T10:16:23.953Z,23.65
2019-05-26T10:17:23.938Z,23.65
2019-05-26T10:18:23.932Z,23.68
2019-05-26T10:19:23.922Z,23.65
2019-05-26T10:20:23.913Z,23.81
2019-05-26T10:21:23.903Z,23.98
2019-05-26T10:22:23.894Z,24.18
2019-05-26T10:23:23.888Z,24.17
2019-05-26T10:24:23.877Z,24.06
2019-05-26T10:25:23.870Z,24.16
2019-05-26T10:26:23.861Z,24.31
2019-05-26T10:27:23.854Z,24.41
2019-05-26T10:28:23.845Z,24.53
2019-05-26T10:29:23.882Z,24.69
2019-05-26T10:30:23.830Z,24.91
2019-05-26T10:31:23.821Z,24.95
2019-05-26T10:32:23.833Z,24.70
2019-05-26T10:33:23.807Z,24.95
2019-05-26T10:34:23.800Z,24.98
2019-05-26T10:35:23.793Z,24.81
2019-05-26T10:36:23.819Z,24.95
2019-05-26T10:37:23.779Z,24.80
2019-05-26T10:38:23.772Z,24.56
2019-05-26T10:39:23.765Z,24.61
2019-05-26T10:40:23.758Z,24.64
2019-05-26T10:41:23.748Z,24.86
2019-05-26T10:42:23.742Z,24.98
2019-05-26T10:43:23.742Z,24.81
2019-05-26T10:44:23.728Z,24.89
2019-05-26T10:45:23.722Z,25.02
2019-05-26T10:46:23.715Z,25.21
2019-05-26T10:47:23.709Z,25.43
2019-05-26T10:48:23.703Z,25.56
2019-05-26T10:49:23.695Z,25.71
2019-05-26T10:50:23.689Z,25.72
2019-05-26T10:51:23.681Z,25.84
2019-05-26T10:52:23.676Z,25.80
2019-05-26T10:53:23.669Z,25.69
2019-05-26T10:54:23.666Z,25.76
2019-05-26T10:55:23.654Z,25.78
2019-05-26T10:56:23.662Z,25.62
2019-05-26T10:57:23.661Z,25.21
2019-05-26T10:58:23.676Z,25.04
2019-05-26T10:59:23.639Z,25.09
2019-05-26T11:00:23.625Z,25.11
2019-05-26T11:01:23.634Z,25.09
2019-05-26T11:02:23.609Z,25.07
2019-05-26T11:03:23.603Z,25.20
2019-05-26T11:04:23.593Z,25.20
2019-05-26T11:05:23.589Z,25.32
2019-05-26T11:06:23.621Z,25.50
2019-05-26T11:07:26.798Z,25.75
2019-05-26T11:08:23.567Z,25.73
2019-05-26T11:09:23.560Z,25.51
2019-05-26T11:10:23.554Z,25.54
2019-05-26T11:11:23.545Z,25.41
2019-05-26T11:12:23.539Z,25.25
2019-05-26T11:13:23.532Z,25.33
2019-05-26T11:14:23.524Z,25.62
2019-05-26T11:15:23.524Z,25.76
2019-05-26T11:16:23.510Z,25.72
2019-05-26T11:17:23.506Z,25.87
2019-05-26T11:18:23.498Z,25.75
2019-05-26T11:19:23.489Z,25.69
2019-05-26T11:20:23.483Z,25.76
2019-05-26T11:21:23.481Z,25.80
2019-05-26T11:22:23.472Z,25.81
2019-05-26T11:23:23.464Z,25.78
2019-05-26T11:24:23.456Z,25.78
2019-05-26T11:25:23.451Z,25.88
2019-05-26T11:26:23.450Z,25.73
2019-05-26T11:27:23.438Z,25.54
2019-05-26T11:28:23.435Z,25.57
2019-05-26T11:29:23.425Z,25.46
2019-05-26T11:30:23.419Z,25.21
2019-05-26T11:31:23.410Z,25.44
2019-05-26T11:32:23.440Z,25.29
2019-05-26T11:33:23.436Z,25.25
2019-05-26T11:34:23.393Z,25.18
2019-05-26T11:35:23.384Z,25.28
2019-05-26T11:36:23.382Z,25.46
2019-05-26T11:37:23.379Z,25.48
2019-05-26T11:38:23.370Z,25.48
2019-05-26T11:39:23.385Z,25.24
2019-05-26T11:40:23.378Z,25.09
2019-05-26T11:41:23.344Z,25.09
2019-05-26T11:42:23.358Z,25.07
2019-05-26T11:43:23.350Z,25.21
2019-05-26T11:44:23.323Z,25.26
2019-05-26T11:45:23.325Z,25.36
2019-05-26T11:46:23.316Z,25.56
2019-05-26T11:47:23.304Z,25.47
2019-05-26T11:48:23.299Z,25.66
2019-05-26T11:49:23.294Z,25.66
2019-05-26T11:50:23.286Z,25.73
2019-05-26T11:51:23.284Z,25.78
2019-05-26T11:52:23.277Z,25.72
2019-05-26T11:53:23.264Z,25.80
2019-05-26T11:54:23.259Z,25.71
2019-05-26T11:55:23.252Z,25.63
2019-05-26T11:56:23.247Z,25.56
2019-05-26T11:57:23.236Z,25.44
2019-05-26T11:58:23.230Z,25.53
2019-05-26T11:59:23.223Z,25.62
2019-05-26T12:00:23.218Z,25.68
2019-05-26T12:01:23.361Z,25.57
2019-05-26T12:02:23.203Z,25.72
2019-05-26T12:03:23.205Z,25.90
2019-05-26T12:04:23.189Z,25.88
2019-05-26T12:05:23.189Z,25.81
2019-05-26T12:06:23.183Z,25.91
2019-05-26T12:07:23.169Z,26.03
2019-05-26T12:08:23.163Z,25.81
2019-05-26T12:09:23.210Z,25.62
2019-05-26T12:10:23.149Z,25.44
2019-05-26T12:11:23.142Z,25.29
2019-05-26T12:12:23.133Z,25.43
2019-05-26T12:13:23.128Z,25.68
2019-05-26T12:14:34.150Z,25.69
2019-05-26T12:15:23.115Z,25.62
2019-05-26T12:16:23.108Z,25.75
2019-05-26T12:17:23.107Z,25.78
2019-05-26T12:18:23.102Z,25.78
2019-05-26T12:19:23.091Z,25.87
2019-05-26T12:20:23.079Z,25.83
2019-05-26T12:21:23.079Z,25.69
2019-05-26T12:22:23.070Z,25.71
2019-05-26T12:23:23.059Z,25.81
2019-05-26T12:24:23.056Z,25.94
2019-05-26T12:25:23.056Z,25.87
2019-05-26T12:26:23.041Z,26.00
2019-05-26T12:27:23.035Z,26.28
2019-05-26T12:28:23.040Z,26.10
2019-05-26T12:29:23.021Z,26.06
2019-05-26T12:30:23.021Z,26.09
2019-05-26T12:31:23.035Z,25.98
2019-05-26T12:32:23.003Z,25.99
2019-05-26T12:33:23.055Z,25.91
2019-05-26T12:34:22.988Z,25.99
2019-05-26T12:35:22.987Z,26.02
2019-05-26T12:36:22.975Z,26.05
2019-05-26T12:37:22.967Z,26.05
2019-05-26T12:38:22.970Z,26.05
2019-05-26T12:39:22.956Z,26.02
2019-05-26T12:40:22.947Z,26.02
2019-05-26T12:41:22.940Z,25.91
2019-05-26T12:42:22.934Z,26.03
2019-05-26T12:43:22.927Z,25.98
2019-05-26T12:44:22.945Z,26.16
2019-05-26T12:45:22.916Z,26.02
2019-05-26T12:46:22.908Z,26.02
2019-05-26T12:47:22.901Z,26.13
2019-05-26T12:48:22.897Z,26.16
2019-05-26T12:49:22.919Z,26.29
2019-05-26T12:50:22.882Z,26.25
2019-05-26T12:51:22.875Z,26.48
2019-05-26T12:52:22.874Z,26.54
2019-05-26T12:53:22.863Z,26.65